Time;durP1;ratioP1;P1;durP2;ratioP2;P2;SDS_P1;SDS_P2;PMS_P1;PMS_P2;Temp;Humidity;BMP_temperature;BMP_pressure;BME280_temperature;BME280_humidity;BME280_pressure;Samples;Min_cycle;Max_cycle;Signal;HPM_P1;HPM_P2
2023/05/21 00:00:19;;;;;;;5.38;2.60;;;15.20;99.40;;;;;;5061542;28;20036;-64
2023/05/21 00:02:45;;;;;;;4.20;3.00;;;15.20;99.60;;;;;;5054832;28;20031;-66
2023/05/21 00:05:13;;;;;;;6.47;2.80;;;15.20;99.80;;;;;;5064856;28;20035;-61
2023/05/21 00:07:39;;;;;;;6.55;2.55;;;15.20;99.90;;;;;;5073399;28;20515;-65
2023/05/21 00:10:06;;;;;;;5.53;2.50;;;15.30;99.90;;;;;;5073950;28;20024;-61
2023/05/21 00:12:31;;;;;;;4.05;2.72;;;15.30;99.90;;;;;;5055757;28;20031;-61
2023/05/21 00:14:58;;;;;;;4.57;2.90;;;15.30;99.90;;;;;;5072925;28;20020;-67
2023/05/21 00:17:24;;;;;;;4.68;2.78;;;15.30;99.90;;;;;;5072540;28;20016;-62
2023/05/21 00:19:51;;;;;;;4.45;2.70;;;15.30;99.90;;;;;;5073581;28;20017;-62
2023/05/21 00:22:16;;;;;;;3.67;2.53;;;15.30;99.90;;;;;;5054959;28;20473;-61
2023/05/21 00:24:44;;;;;;;4.82;2.92;;;15.30;99.90;;;;;;5073901;28;20074;-62
2023/05/21 00:27:13;;;;;;;5.45;2.42;;;15.30;99.90;;;;;;5055466;28;20489;-64
2023/05/21 00:29:39;;;;;;;5.95;3.45;;;15.30;99.90;;;;;;5072626;28;20433;-66
2023/05/21 00:32:05;;;;;;;5.25;3.00;;;15.20;99.90;;;;;;5073495;28;20021;-61
2023/05/21 00:34:31;;;;;;;112.00;107.45;;;15.20;99.90;;;;;;5072586;28;20042;-62
2023/05/21 00:36:57;;;;;;;4.50;2.72;;;15.20;99.90;;;;;;5072685;28;20028;-68
2023/05/21 00:39:23;;;;;;;4.80;2.63;;;15.20;99.90;;;;;;5073110;28;20440;-68
2023/05/21 00:41:49;;;;;;;4.78;2.80;;;15.20;99.90;;;;;;5073244;28;20082;-69
2023/05/21 00:44:17;;;;;;;5.60;2.40;;;15.20;99.90;;;;;;5072103;28;20024;-61
2023/05/21 00:46:43;;;;;;;5.03;2.90;;;15.10;99.90;;;;;;5073219;28;20023;-62
2023/05/21 00:49:10;;;;;;;5.20;3.17;;;15.10;99.90;;;;;;5072725;28;20038;-62
2023/05/21 00:51:35;;;;;;;4.47;3.08;;;15.00;99.90;;;;;;5054660;28;20033;-61
2023/05/21 00:54:01;;;;;;;7.45;3.40;;;15.00;99.90;;;;;;5061875;28;20025;-63
2023/05/21 00:56:27;;;;;;;4.43;3.08;;;15.00;99.90;;;;;;5069354;28;20024;-61
2023/05/21 00:58:56;;;;;;;6.00;3.13;;;14.90;99.90;;;;;;5054808;28;20049;-66
2023/05/21 01:01:24;;;;;;;5.63;3.33;;;15.00;99.90;;;;;;5054887;28;20393;-61
2023/05/21 01:03:56;;;;;;;5.93;3.28;;;14.90;99.90;;;;;;5072660;28;20024;-62
2023/05/21 01:06:22;;;;;;;3.65;2.80;;;14.90;99.90;;;;;;5072363;28;20037;-61
2023/05/21 01:08:49;;;;;;;4.68;3.25;;;14.90;99.90;;;;;;5052801;28;20558;-62
2023/05/21 01:11:16;;;;;;;5.13;3.53;;;14.80;99.90;;;;;;5052398;28;20021;-61
2023/05/21 01:13:43;;;;;;;5.82;3.47;;;14.70;99.90;;;;;;5052847;28;20024;-61
2023/05/21 01:16:12;;;;;;;6.07;3.50;;;14.70;99.90;;;;;;5052732;28;20021;-62
2023/05/21 01:18:38;;;;;;;4.93;3.17;;;14.70;99.90;;;;;;5052042;28;20095;-61
2023/05/21 01:21:04;;;;;;;6.15;3.42;;;14.70;99.90;;;;;;5052822;28;20053;-62
2023/05/21 01:23:30;;;;;;;6.50;3.60;;;14.70;99.90;;;;;;5053411;28;20025;-61
2023/05/21 01:25:55;;;;;;;7.22;3.67;;;14.70;99.90;;;;;;5068767;28;20035;-62
2023/05/21 01:28:21;;;;;;;5.20;3.17;;;14.80;99.90;;;;;;5072291;28;20039;-64
2023/05/21 01:30:47;;;;;;;4.35;3.00;;;14.80;99.90;;;;;;5072501;28;20056;-61
2023/05/21 01:33:19;;;;;;;5.28;3.28;;;14.80;99.90;;;;;;5072367;28;20020;-62
2023/05/21 01:36:01;;;;;;;6.30;3.83;;;14.80;99.90;;;;;;5054855;28;20393;-61
2023/05/21 01:38:36;;;;;;;6.10;3.70;;;14.90;99.90;;;;;;5072716;28;20044;-61
2023/05/21 01:41:05;;;;;;;5.32;3.67;;;14.90;99.90;;;;;;5066393;28;20098;-62
2023/05/21 01:43:35;;;;;;;7.05;3.80;;;14.90;99.90;;;;;;5052533;28;20029;-62
2023/05/21 01:46:01;;;;;;;7.03;3.80;;;14.90;99.90;;;;;;5052020;28;20020;-63
2023/05/21 01:48:28;;;;;;;6.93;4.05;;;14.90;99.90;;;;;;5052181;28;20029;-61
2023/05/21 01:50:56;;;;;;;6.28;3.40;;;14.90;99.90;;;;;;5061788;28;20028;-62
2023/05/21 01:53:22;;;;;;;5.63;3.58;;;14.90;99.90;;;;;;5068089;28;20492;-65
2023/05/21 01:55:48;;;;;;;7.07;3.60;;;14.90;99.90;;;;;;5053350;28;20102;-61
2023/05/21 01:58:17;;;;;;;6.35;3.70;;;14.90;99.90;;;;;;5074550;28;20052;-66
2023/05/21 02:00:44;;;;;;;6.93;4.28;;;14.90;99.90;;;;;;5073130;28;20392;-62
2023/05/21 02:03:10;;;;;;;7.47;3.67;;;14.90;99.90;;;;;;5058227;28;20042;-62
2023/05/21 02:05:36;;;;;;;5.07;3.08;;;14.90;99.90;;;;;;5075086;28;20087;-61
2023/05/21 02:08:02;;;;;;;5.97;3.55;;;14.90;99.90;;;;;;5075663;28;20548;-63
2023/05/21 02:10:27;;;;;;;6.03;3.78;;;14.90;99.90;;;;;;5074851;28;20032;-62
2023/05/21 02:12:53;;;;;;;6.15;3.75;;;14.90;99.90;;;;;;5075977;28;20024;-61
2023/05/21 02:15:19;;;;;;;6.18;3.75;;;14.90;99.90;;;;;;5073593;28;20110;-62
2023/05/21 02:17:45;;;;;;;6.60;3.53;;;14.90;99.90;;;;;;5076011;28;20048;-62
2023/05/21 02:20:11;;;;;;;7.80;3.85;;;14.90;99.90;;;;;;5074423;28;20031;-60
2023/05/21 02:22:47;;;;;;;6.32;3.75;;;14.90;99.90;;;;;;5075375;28;20027;-61
2023/05/21 02:25:18;;;;;;;6.90;4.28;;;14.90;99.90;;;;;;5040318;28;20495;-61
2023/05/21 02:27:45;;;;;;;;;;;14.90;99.90;;;;;;5056189;28;20033;-61
2023/05/21 02:30:13;;;;;;;6.15;3.15;;;14.90;99.90;;;;;;5037068;28;19909;-61
2023/05/21 02:32:41;;;;;;;5.75;3.60;;;14.90;99.90;;;;;;5056639;28;20021;-67
2023/05/21 02:35:08;;;;;;;7.43;3.55;;;14.80;99.90;;;;;;5069462;28;20112;-64
2023/05/21 02:37:35;;;;;;;5.53;4.00;;;14.80;99.90;;;;;;5075681;28;20072;-62
2023/05/21 02:40:02;;;;;;;6.07;4.03;;;14.80;99.90;;;;;;5060687;28;20028;-61
2023/05/21 02:42:28;;;;;;;7.40;4.15;;;14.80;99.90;;;;;;5037097;28;20469;-64
2023/05/21 02:44:55;;;;;;;5.90;3.63;;;14.80;99.90;;;;;;5068157;28;20050;-65
2023/05/21 02:47:22;;;;;;;5.10;2.95;;;14.80;99.90;;;;;;5075474;28;20021;-64
2023/05/21 02:49:49;;;;;;;5.65;3.50;;;14.80;99.90;;;;;;5073396;28;20072;-64
2023/05/21 02:52:17;;;;;;;5.30;3.75;;;14.80;99.90;;;;;;5075123;28;20492;-61
2023/05/21 02:54:45;;;;;;;6.90;3.78;;;14.80;99.90;;;;;;5069171;28;20028;-62
2023/05/21 02:57:11;;;;;;;7.88;4.10;;;14.80;99.90;;;;;;5054474;28;20033;-65
2023/05/21 02:59:37;;;;;;;5.32;3.30;;;14.70;99.90;;;;;;5037141;28;20537;-64
2023/05/21 03:02:02;;;;;;;7.13;4.10;;;14.70;99.90;;;;;;5054977;28;20032;-61
2023/05/21 03:04:28;;;;;;;5.80;3.70;;;14.70;99.90;;;;;;5061533;28;20021;-61
2023/05/21 03:06:55;;;;;;;8.30;4.28;;;14.70;99.90;;;;;;5074032;28;20381;-61
2023/05/21 03:09:21;;;;;;;6.05;3.55;;;14.70;99.90;;;;;;5072424;28;20029;-64
2023/05/21 03:11:47;;;;;;;6.93;4.18;;;14.70;99.90;;;;;;5071502;28;20109;-65
2023/05/21 03:14:13;;;;;;;6.97;4.70;;;14.70;99.90;;;;;;5050664;28;20047;-61
2023/05/21 03:16:40;;;;;;;8.50;4.40;;;14.70;99.90;;;;;;5058805;28;20029;-61
2023/05/21 03:19:07;;;;;;;8.52;4.40;;;14.70;99.90;;;;;;5054192;28;20088;-62
2023/05/21 03:21:32;;;;;;;7.07;4.18;;;14.60;99.90;;;;;;5054629;28;20362;-61
2023/05/21 03:23:59;;;;;;;6.53;4.20;;;14.60;99.90;;;;;;5066583;28;20021;-60
2023/05/21 03:26:28;;;;;;;6.35;3.60;;;14.60;99.90;;;;;;5068659;28;20504;-62
2023/05/21 03:28:55;;;;;;;8.20;4.55;;;14.60;99.90;;;;;;5072835;28;20457;-63
2023/05/21 03:31:21;;;;;;;6.82;4.22;;;14.60;99.90;;;;;;5072483;28;20388;-60
2023/05/21 03:33:47;;;;;;;7.43;4.57;;;14.60;99.90;;;;;;5043520;28;20059;-61
2023/05/21 03:36:12;;;;;;;7.47;4.90;;;14.50;99.90;;;;;;5074070;28;20048;-62
2023/05/21 03:38:38;;;;;;;6.18;3.95;;;14.50;99.90;;;;;;5072668;28;20083;-61
2023/05/21 03:41:05;;;;;;;7.68;4.40;;;14.40;99.90;;;;;;5050921;28;20028;-61
2023/05/21 03:43:30;;;;;;;7.18;4.10;;;14.40;99.90;;;;;;5072658;28;20028;-61
2023/05/21 03:45:56;;;;;;;6.05;4.25;;;14.30;99.90;;;;;;5072255;28;20031;-61
2023/05/21 03:48:21;;;;;;;8.73;4.10;;;14.30;99.90;;;;;;5072424;28;20500;-61
2023/05/21 03:50:47;;;;;;;6.00;3.95;;;14.20;99.90;;;;;;5072402;28;20063;-61
2023/05/21 03:53:13;;;;;;;10.68;4.40;;;14.20;99.90;;;;;;5071375;28;20036;-62
2023/05/21 03:55:39;;;;;;;7.57;4.72;;;14.10;99.90;;;;;;5073298;28;20449;-63
2023/05/21 03:58:04;;;;;;;7.28;4.43;;;14.10;99.90;;;;;;5071733;28;20123;-61
2023/05/21 04:00:33;;;;;;;6.47;4.75;;;14.10;99.90;;;;;;5073079;28;20457;-61
2023/05/21 04:02:59;;;;;;;7.90;4.88;;;14.00;99.90;;;;;;5071799;28;20101;-61
2023/05/21 04:05:24;;;;;;;8.52;5.05;;;14.00;99.90;;;;;;5055775;28;20052;-61
2023/05/21 04:07:50;;;;;;;7.70;4.68;;;14.00;99.90;;;;;;5071357;28;20032;-62
2023/05/21 04:10:15;;;;;;;7.20;4.40;;;14.00;99.90;;;;;;5059750;28;20111;-61
2023/05/21 04:12:41;;;;;;;7.07;4.57;;;13.90;99.90;;;;;;5073029;28;20056;-61
2023/05/21 04:15:07;;;;;;;7.22;4.97;;;13.90;99.90;;;;;;5072267;28;20491;-61
2023/05/21 04:17:34;;;;;;;8.75;4.65;;;13.90;99.90;;;;;;5071679;28;20032;-62
2023/05/21 04:20:00;;;;;;;6.43;4.03;;;13.90;99.90;;;;;;5071724;28;20031;-61
2023/05/21 04:22:25;;;;;;;8.48;4.97;;;13.90;99.90;;;;;;5071074;28;21460;-61
2023/05/21 04:24:53;;;;;;;8.10;4.97;;;13.90;99.90;;;;;;5070631;28;20028;-61
2023/05/21 04:27:22;;;;;;;7.85;4.53;;;13.80;99.90;;;;;;5072681;28;20028;-61
2023/05/21 04:29:49;;;;;;;6.40;4.18;;;13.90;99.90;;;;;;5071734;28;20033;-61
2023/05/21 04:32:16;;;;;;;8.05;4.57;;;13.80;99.90;;;;;;5072580;28;20078;-62
2023/05/21 04:34:42;;;;;;;6.85;4.45;;;13.80;99.90;;;;;;5072493;28;20031;-61
2023/05/21 04:37:08;;;;;;;7.20;5.07;;;13.90;99.90;;;;;;5072623;28;20020;-62
2023/05/21 04:39:35;;;;;;;7.50;5.20;;;13.90;99.90;;;;;;5072123;28;20025;-62
2023/05/21 04:42:02;;;;;;;6.97;4.65;;;13.90;99.90;;;;;;5072597;28;20017;-61
2023/05/21 04:44:28;;;;;;;8.43;5.03;;;13.90;99.90;;;;;;5072732;28;20478;-61
2023/05/21 04:46:53;;;;;;;9.80;5.65;;;14.00;99.90;;;;;;5072105;28;20035;-61
2023/05/21 04:49:22;;;;;;;10.10;5.22;;;14.00;99.90;;;;;;5071375;28;20044;-61
2023/05/21 04:51:48;;;;;;;15.93;5.05;;;14.00;99.90;;;;;;5068879;28;20025;-62
2023/05/21 04:54:14;;;;;;;9.77;5.03;;;14.00;99.90;;;;;;5072055;28;20033;-65
2023/05/21 04:56:40;;;;;;;6.35;4.25;;;14.00;99.90;;;;;;5068397;28;20042;-63
2023/05/21 04:59:05;;;;;;;8.10;4.68;;;14.10;99.90;;;;;;5072140;28;20471;-61
2023/05/21 05:01:33;;;;;;;8.35;5.00;;;14.10;99.90;;;;;;5072837;28;20075;-61
2023/05/21 05:03:59;;;;;;;7.43;5.10;;;14.10;99.90;;;;;;5065679;28;20028;-61
2023/05/21 05:06:25;;;;;;;7.97;4.60;;;14.20;99.90;;;;;;5071929;28;20028;-61
2023/05/21 05:08:51;;;;;;;7.78;5.28;;;14.20;99.90;;;;;;5072111;28;20085;-61
2023/05/21 05:11:16;;;;;;;7.47;5.03;;;14.20;99.90;;;;;;5054200;28;20029;-61
2023/05/21 05:13:42;;;;;;;8.75;5.60;;;14.20;99.90;;;;;;5072907;28;20469;-63
2023/05/21 05:16:08;;;;;;;8.73;5.57;;;14.30;99.90;;;;;;5071839;28;20033;-61
2023/05/21 05:18:35;;;;;;;9.27;5.65;;;14.30;99.90;;;;;;5057934;28;20021;-62
2023/05/21 05:21:01;;;;;;;8.15;4.88;;;14.30;99.90;;;;;;5053274;28;20387;-61
2023/05/21 05:23:26;;;;;;;7.63;5.18;;;14.40;99.90;;;;;;5070859;28;20496;-61
2023/05/21 05:25:52;;;;;;;8.65;5.38;;;14.40;99.90;;;;;;5069801;28;20032;-63
2023/05/21 05:28:17;;;;;;;9.30;5.00;;;14.50;99.90;;;;;;5068145;28;20530;-67
2023/05/21 05:30:44;;;;;;;8.32;5.68;;;14.50;99.90;;;;;;5071019;28;20086;-61
2023/05/21 05:33:10;;;;;;;8.15;5.07;;;14.50;99.90;;;;;;5075645;28;20024;-61
2023/05/21 05:35:36;;;;;;;10.05;5.32;;;14.60;99.90;;;;;;5077072;28;20037;-62
2023/05/21 05:38:02;;;;;;;9.52;4.90;;;14.60;99.90;;;;;;5076207;28;20075;-62
2023/05/21 05:40:28;;;;;;;9.18;5.70;;;14.60;99.90;;;;;;5074379;28;20032;-61
2023/05/21 05:42:53;;;;;;;9.23;5.65;;;14.70;99.90;;;;;;5061158;28;20091;-61
2023/05/21 05:45:19;;;;;;;7.72;4.82;;;14.70;99.90;;;;;;5068853;28;20103;-61
2023/05/21 05:47:45;;;;;;;8.13;5.50;;;14.70;99.90;;;;;;5076810;28;20020;-62
2023/05/21 05:50:11;;;;;;;10.68;5.97;;;14.70;99.90;;;;;;5057148;28;20032;-61
2023/05/21 05:52:36;;;;;;;8.18;5.75;;;14.80;99.90;;;;;;5057136;28;20032;-61
2023/05/21 05:55:02;;;;;;;8.73;5.93;;;14.80;99.90;;;;;;5058526;28;20025;-62
2023/05/21 05:57:28;;;;;;;10.15;5.65;;;14.80;99.90;;;;;;5070682;28;20452;-61
2023/05/21 05:59:54;;;;;;;8.25;5.60;;;14.80;99.90;;;;;;5075805;28;20013;-61
2023/05/21 06:02:19;;;;;;;9.55;5.75;;;14.90;99.90;;;;;;5058322;28;20063;-63
2023/05/21 06:04:45;;;;;;;9.88;5.57;;;14.90;99.90;;;;;;5056170;28;20032;-61
2023/05/21 06:07:10;;;;;;;10.25;5.25;;;15.00;99.90;;;;;;5059752;28;20020;-62
2023/05/21 06:09:37;;;;;;;10.95;5.95;;;15.00;99.90;;;;;;5055921;28;20098;-61
2023/05/21 06:12:04;;;;;;;10.98;5.22;;;15.00;99.90;;;;;;5072596;28;20028;-63
2023/05/21 06:14:30;;;;;;;11.38;5.97;;;15.10;99.90;;;;;;5072720;28;20626;-63
2023/05/21 06:16:56;;;;;;;8.75;6.05;;;15.10;99.90;;;;;;5070809;28;20057;-62
2023/05/21 06:19:21;;;;;;;8.57;5.68;;;15.20;99.90;;;;;;5056856;28;20071;-63
2023/05/21 06:21:47;;;;;;;9.52;5.15;;;15.20;99.90;;;;;;5068766;28;20025;-61
2023/05/21 06:24:13;;;;;;;10.57;5.32;;;15.20;99.90;;;;;;5075714;28;20033;-62
2023/05/21 06:26:38;;;;;;;11.30;5.40;;;15.20;99.90;;;;;;5075710;28;20093;-68
2023/05/21 06:29:04;;;;;;;9.60;4.82;;;15.30;99.90;;;;;;5072905;28;20036;-63
2023/05/21 06:31:31;;;;;;;8.10;5.32;;;15.30;99.90;;;;;;5070654;28;20346;-61
2023/05/21 06:33:58;;;;;;;9.70;5.40;;;15.40;99.90;;;;;;5071077;28;20124;-60
2023/05/21 06:36:25;;;;;;;10.00;5.95;;;15.50;99.90;;;;;;5058917;28;20011;-61
2023/05/21 06:38:51;;;;;;;7.88;5.00;;;15.60;99.90;;;;;;5074510;28;20024;-61
2023/05/21 06:41:16;;;;;;;10.95;6.20;;;15.60;99.90;;;;;;5058816;28;20504;-63
2023/05/21 06:43:42;;;;;;;8.77;5.22;;;15.70;99.90;;;;;;5071462;28;20032;-61
2023/05/21 06:46:07;;;;;;;8.32;5.40;;;15.90;99.90;;;;;;5057113;28;20024;-61
2023/05/21 06:48:33;;;;;;;10.00;6.00;;;16.00;99.90;;;;;;5072454;28;20047;-61
2023/05/21 06:50:58;;;;;;;8.70;5.32;;;16.10;99.90;;;;;;5064310;28;20461;-61
2023/05/21 06:53:24;;;;;;;9.55;5.30;;;16.10;99.90;;;;;;5066915;28;20107;-61
2023/05/21 06:55:52;;;;;;;9.63;5.38;;;16.20;99.90;;;;;;5070857;28;20032;-61
2023/05/21 06:58:18;;;;;;;8.93;4.47;;;16.30;99.90;;;;;;5070190;28;20110;-62
2023/05/21 07:00:44;;;;;;;8.60;5.00;;;16.50;99.90;;;;;;5073336;28;20036;-63
2023/05/21 07:03:10;;;;;;;17.13;5.75;;;16.70;99.90;;;;;;5055603;28;20029;-65
2023/05/21 07:05:35;;;;;;;7.65;4.82;;;16.90;99.90;;;;;;5074505;28;20028;-61
2023/05/21 07:08:01;;;;;;;11.20;5.75;;;16.90;99.90;;;;;;5072840;28;20516;-62
2023/05/21 07:10:26;;;;;;;8.77;5.03;;;16.90;99.90;;;;;;5069878;28;20051;-61
2023/05/21 07:12:52;;;;;;;8.50;5.68;;;16.90;99.90;;;;;;5072333;28;20048;-62
2023/05/21 07:15:17;;;;;;;11.35;6.25;;;16.90;99.90;;;;;;5068432;28;20132;-61
2023/05/21 07:17:43;;;;;;;7.53;4.85;;;16.90;99.90;;;;;;5063641;28;20115;-61
2023/05/21 07:20:10;;;;;;;9.85;6.03;;;17.00;99.90;;;;;;5073733;28;20107;-62
2023/05/21 07:22:37;;;;;;;8.35;5.47;;;17.10;99.90;;;;;;5075225;28;20179;-62
2023/05/21 07:25:04;;;;;;;10.13;5.13;;;17.20;99.90;;;;;;5056245;28;20385;-61
2023/05/21 07:27:29;;;;;;;8.20;5.30;;;17.40;99.90;;;;;;5074466;28;20113;-61
2023/05/21 07:29:55;;;;;;;10.15;5.85;;;17.40;99.90;;;;;;5060199;28;20079;-62
2023/05/21 07:32:20;;;;;;;9.98;5.47;;;17.40;99.90;;;;;;5036466;28;20479;-61
2023/05/21 07:34:46;;;;;;;7.53;5.13;;;17.50;99.90;;;;;;5054676;28;20048;-61
2023/05/21 07:37:12;;;;;;;9.00;5.60;;;17.50;99.90;;;;;;5054836;28;20025;-61
2023/05/21 07:39:38;;;;;;;9.98;6.28;;;17.40;99.90;;;;;;5053760;28;20373;-60
2023/05/21 07:42:04;;;;;;;10.75;6.00;;;17.40;99.90;;;;;;5065008;28;20033;-61
2023/05/21 07:44:30;;;;;;;9.95;5.72;;;17.40;99.90;;;;;;5073814;28;20404;-62
2023/05/21 07:46:56;;;;;;;8.88;5.40;;;17.40;99.90;;;;;;5074343;28;20078;-61
2023/05/21 07:49:22;;;;;;;10.65;5.90;;;17.50;99.90;;;;;;5074045;28;20032;-62
2023/05/21 07:51:48;;;;;;;9.13;5.80;;;17.50;99.90;;;;;;5073545;28;20472;-61
2023/05/21 07:54:13;;;;;;;9.30;5.80;;;17.50;99.90;;;;;;5056167;28;20066;-61
2023/05/21 07:56:39;;;;;;;9.45;5.65;;;17.50;99.90;;;;;;5073879;28;20028;-61
2023/05/21 07:59:05;;;;;;;8.52;5.50;;;17.60;99.90;;;;;;5073191;28;20045;-61
2023/05/21 08:01:31;;;;;;;8.15;5.30;;;17.60;99.90;;;;;;5073831;28;20104;-61
2023/05/21 08:04:00;;;;;;;9.02;5.60;;;17.60;99.90;;;;;;5073896;28;20031;-61
2023/05/21 08:06:25;;;;;;;8.85;5.70;;;17.70;99.90;;;;;;5073060;28;20017;-61
2023/05/21 08:08:53;;;;;;;9.05;5.80;;;17.80;99.90;;;;;;5073408;28;20039;-61
2023/05/21 08:11:18;;;;;;;10.15;6.40;;;17.90;99.90;;;;;;5073810;28;20080;-61
2023/05/21 08:13:44;;;;;;;10.88;6.53;;;18.10;99.90;;;;;;5073014;28;20108;-61
2023/05/21 08:16:10;;;;;;;8.90;5.75;;;18.10;99.90;;;;;;5073801;28;20048;-61
2023/05/21 08:18:35;;;;;;;9.18;6.05;;;18.10;99.90;;;;;;5073273;28;20024;-61
2023/05/21 08:21:01;;;;;;;9.77;6.60;;;18.10;99.90;;;;;;5073194;28;20434;-61
2023/05/21 08:23:27;;;;;;;9.65;5.68;;;18.20;99.90;;;;;;5073671;28;20465;-61
2023/05/21 08:25:52;;;;;;;11.18;6.65;;;18.20;99.90;;;;;;5073715;28;20035;-60
2023/05/21 08:28:18;;;;;;;10.77;7.10;;;18.30;99.90;;;;;;5072720;28;20619;-61
2023/05/21 08:30:44;;;;;;;10.95;6.43;;;18.40;99.90;;;;;;5073153;28;20043;-61
2023/05/21 08:33:09;;;;;;;10.45;5.78;;;18.40;99.90;;;;;;5073366;28;20013;-61
2023/05/21 08:35:35;;;;;;;9.40;5.75;;;18.50;99.90;;;;;;5072841;28;20020;-60
2023/05/21 08:38:00;;;;;;;10.82;6.10;;;18.50;99.90;;;;;;5073309;28;20024;-61
2023/05/21 08:40:26;;;;;;;11.05;6.15;;;18.60;99.90;;;;;;5073137;28;20031;-60
2023/05/21 08:42:52;;;;;;;9.98;6.18;;;18.60;99.90;;;;;;5072921;28;20029;-61
2023/05/21 08:45:22;;;;;;;9.25;5.78;;;18.60;99.90;;;;;;5073219;28;20059;-60
2023/05/21 08:47:55;;;;;;;10.48;6.03;;;18.70;99.90;;;;;;5072456;28;20033;-61
2023/05/21 08:50:23;;;;;;;12.43;6.65;;;18.70;99.90;;;;;;5073209;28;20060;-60
2023/05/21 08:52:49;;;;;;;10.85;6.28;;;18.60;99.90;;;;;;5055054;28;20024;-61
2023/05/21 08:55:15;;;;;;;9.90;5.57;;;18.70;99.90;;;;;;5070698;28;20078;-61
2023/05/21 08:57:43;;;;;;;11.15;6.63;;;18.80;99.90;;;;;;5073097;28;20542;-61
2023/05/21 09:00:10;;;;;;;8.48;5.68;;;18.90;99.90;;;;;;5072842;28;20103;-60
2023/05/21 09:02:39;;;;;;;12.65;6.80;;;18.90;99.90;;;;;;5072429;28;20092;-61
2023/05/21 09:05:08;;;;;;;10.63;6.18;;;19.00;99.90;;;;;;5064278;28;20025;-64
2023/05/21 09:07:41;;;;;;;10.43;6.93;;;19.10;99.90;;;;;;5052817;28;20389;-60
2023/05/21 09:10:10;;;;;;;12.45;7.88;;;19.10;99.90;;;;;;5052244;28;20174;-60
2023/05/21 09:12:36;;;;;;;11.93;7.05;;;19.20;99.90;;;;;;5052795;28;20021;-61
2023/05/21 09:15:02;;;;;;;10.85;6.53;;;19.30;99.90;;;;;;5052933;28;20358;-60
2023/05/21 09:17:28;;;;;;;10.65;6.80;;;19.40;99.90;;;;;;5052210;28;20021;-61
2023/05/21 09:20:12;;;;;;;12.68;6.93;;;19.50;99.90;;;;;;5034705;28;20396;-61
2023/05/21 09:22:45;;;;;;;12.20;6.80;;;19.60;99.90;;;;;;5053295;28;20033;-61
2023/05/21 09:25:12;;;;;;;10.55;6.68;;;19.60;99.90;;;;;;5052361;28;20033;-61
2023/05/21 09:27:38;;;;;;;11.07;7.00;;;19.50;99.90;;;;;;5052934;28;20033;-61
2023/05/21 09:30:09;;;;;;;11.15;6.78;;;19.50;99.90;;;;;;5051818;28;20033;-61
2023/05/21 09:32:35;;;;;;;10.23;6.50;;;19.50;99.90;;;;;;5034975;28;20141;-61
2023/05/21 09:35:12;;;;;;;11.95;7.63;;;19.50;99.90;;;;;;5034721;28;20104;-61
2023/05/21 09:37:39;;;;;;;14.20;7.38;;;19.60;99.90;;;;;;5034243;28;20017;-61
2023/05/21 09:40:21;;;;;;;16.20;8.13;;;19.70;99.90;;;;;;5052372;28;20028;-61
2023/05/21 09:42:48;;;;;;;11.52;7.68;;;19.80;99.90;;;;;;5052872;28;20087;-67
2023/05/21 09:45:25;;;;;;;11.90;7.68;;;19.80;99.90;;;;;;5052005;28;20053;-64
2023/05/21 09:47:52;;;;;;;15.45;8.75;;;19.90;99.90;;;;;;5064449;28;20025;-67
2023/05/21 09:50:28;;;;;;;12.40;7.82;;;19.90;99.90;;;;;;5046437;28;20094;-63
2023/05/21 09:52:54;;;;;;;10.13;6.70;;;19.90;99.90;;;;;;5052217;28;20381;-63
2023/05/21 09:55:25;;;;;;;12.35;7.55;;;19.90;99.90;;;;;;5052293;28;20439;-63
2023/05/21 09:57:51;;;;;;;12.13;6.82;;;19.90;99.90;;;;;;5052321;28;20071;-62
2023/05/21 10:00:21;;;;;;;10.45;7.95;;;19.90;99.90;;;;;;5051702;28;20478;-64
2023/05/21 10:02:48;;;;;;;11.52;7.75;;;20.10;99.90;;;;;;5052367;28;20029;-65
2023/05/21 10:05:15;;;;;;;14.95;8.60;;;20.20;99.90;;;;;;5051968;28;20017;-65
2023/05/21 10:07:44;;;;;;;11.70;7.88;;;20.30;99.90;;;;;;5052305;28;20056;-69
2023/05/21 10:10:13;;;;;;;12.88;8.00;;;20.50;99.90;;;;;;5052209;28;20029;-65
2023/05/21 10:12:55;;;;;;;15.80;8.02;;;20.60;99.90;;;;;;5051994;28;20018;-63
2023/05/21 10:15:23;;;;;;;10.43;7.40;;;20.50;99.90;;;;;;5052891;28;20423;-64
2023/05/21 10:17:51;;;;;;;12.38;7.53;;;20.50;99.90;;;;;;5053126;28;20024;-62
2023/05/21 10:20:17;;;;;;;12.18;8.18;;;20.50;99.90;;;;;;5055426;28;20028;-62
2023/05/21 10:22:43;;;;;;;13.43;8.38;;;20.60;99.90;;;;;;5056322;28;20103;-61
2023/05/21 10:25:12;;;;;;;14.75;10.20;;;20.70;99.90;;;;;;5056038;28;20025;-62
2023/05/21 10:27:38;;;;;;;13.80;8.45;;;20.60;99.90;;;;;;5055208;28;20465;-64
2023/05/21 10:30:05;;;;;;;11.95;7.55;;;20.60;99.90;;;;;;5037808;28;20112;-62
2023/05/21 10:32:31;;;;;;;14.82;9.60;;;20.60;99.90;;;;;;5055884;28;20028;-61
2023/05/21 10:34:58;;;;;;;13.02;7.60;;;20.60;99.90;;;;;;5054985;28;20393;-61
2023/05/21 10:37:25;;;;;;;13.05;7.65;;;20.60;99.90;;;;;;5055513;28;20020;-61
2023/05/21 10:39:51;;;;;;;14.32;8.65;;;20.60;99.90;;;;;;5055590;28;20082;-61
2023/05/21 10:42:36;;;;;;;12.65;8.73;;;20.80;99.90;;;;;;5055020;28;20507;-61
2023/05/21 10:45:31;;;;;;;13.88;8.85;;;20.80;99.90;;;;;;5055507;28;20032;-61
2023/05/21 10:48:21;;;;;;;11.70;8.38;;;20.90;99.90;;;;;;5054940;28;20542;-61
2023/05/21 10:51:07;;;;;;;13.03;8.10;;;20.90;99.90;;;;;;5055338;28;20043;-61
2023/05/21 10:53:50;;;;;;;15.95;9.18;;;20.90;99.90;;;;;;5054984;28;20098;-61
2023/05/21 10:56:45;;;;;;;14.07;9.20;;;21.00;99.90;;;;;;5054637;28;20100;-60
2023/05/21 10:59:25;;;;;;;15.73;9.38;;;21.10;99.90;;;;;;5055063;28;20401;-61
2023/05/21 11:01:51;;;;;;;14.77;8.85;;;21.10;99.90;;;;;;5054830;28;20028;-61
2023/05/21 11:04:22;;;;;;;14.55;8.95;;;21.10;99.90;;;;;;5055227;28;20098;-62
2023/05/21 11:06:48;;;;;;;13.70;9.05;;;21.10;99.90;;;;;;5062494;28;20485;-62
2023/05/21 11:09:14;;;;;;;15.07;9.82;;;21.10;99.90;;;;;;5074665;28;20091;-62
2023/05/21 11:11:47;;;;;;;15.82;10.13;;;21.20;99.90;;;;;;5068079;28;20083;-61
2023/05/21 11:14:56;;;;;;;13.70;9.35;;;21.30;99.90;;;;;;5054965;28;20017;-63
2023/05/21 11:17:39;;;;;;;15.07;9.45;;;21.40;99.70;;;;;;5016044;28;20036;-62
2023/05/21 11:20:10;;;;;;;13.60;9.80;;;21.40;99.50;;;;;;5037408;28;20029;-62
2023/05/21 11:22:37;;;;;;;14.43;8.68;;;21.50;99.80;;;;;;5054501;28;20028;-62
2023/05/21 11:25:03;;;;;;;15.80;9.10;;;21.50;99.70;;;;;;5054909;28;20025;-61
2023/05/21 11:27:36;;;;;;;14.65;9.52;;;21.60;99.60;;;;;;5054865;28;20032;-63
2023/05/21 11:30:28;;;;;;;14.80;9.10;;;21.70;99.20;;;;;;5073081;28;20113;-64
2023/05/21 11:33:09;;;;;;;14.40;9.00;;;21.70;98.70;;;;;;5069931;28;20041;-66
2023/05/21 11:35:57;;;;;;;13.73;8.50;;;21.80;98.40;;;;;;5071774;28;20025;-64
2023/05/21 11:38:27;;;;;;;14.07;9.10;;;21.80;98.40;;;;;;5036135;28;20025;-67
2023/05/21 11:40:54;;;;;;;13.73;8.87;;;21.90;99.00;;;;;;5042623;28;20025;-62
2023/05/21 11:43:19;;;;;;;16.60;10.50;;;22.00;98.90;;;;;;5053491;28;20035;-66
2023/05/21 11:45:46;;;;;;;15.45;8.70;;;22.10;98.80;;;;;;5048926;28;20115;-65
2023/05/21 11:48:15;;;;;;;16.20;11.43;;;22.20;98.30;;;;;;5045072;28;20033;-68
2023/05/21 11:50:43;;;;;;;15.15;9.00;;;22.20;96.80;;;;;;5053545;28;20025;-64
2023/05/21 11:53:11;;;;;;;13.35;9.27;;;22.20;97.20;;;;;;5060582;28;20112;-62
2023/05/21 11:55:42;;;;;;;15.52;10.32;;;22.20;96.90;;;;;;5074023;28;20078;-64
2023/05/21 11:58:12;;;;;;;18.55;10.13;;;22.20;96.80;;;;;;5038291;28;20045;-67
2023/05/21 12:00:39;;;;;;;16.10;10.20;;;22.20;96.70;;;;;;5054413;28;20536;-64
2023/05/21 12:03:06;;;;;;;15.35;8.75;;;22.20;96.50;;;;;;5054302;28;20256;-64
2023/05/21 12:05:44;;;;;;;14.10;7.97;;;22.20;96.80;;;;;;5053805;28;20055;-64
2023/05/21 12:08:09;;;;;;;14.85;9.43;;;22.30;96.90;;;;;;5056012;28;20485;-70
2023/05/21 12:10:38;;;;;;;15.93;8.45;;;22.40;97.30;;;;;;5063476;28;20029;-63
2023/05/21 12:13:04;;;;;;;13.73;8.68;;;22.60;96.90;;;;;;5073150;28;20032;-63
2023/05/21 12:15:29;;;;;;;13.52;9.07;;;22.70;96.70;;;;;;5055674;28;20024;-63
2023/05/21 12:17:55;;;;;;;16.50;8.60;;;22.80;96.20;;;;;;5073980;28;20111;-64
2023/05/21 12:20:22;;;;;;;14.90;9.07;;;22.90;95.50;;;;;;5072183;28;20021;-63
2023/05/21 12:22:48;;;;;;;10.93;8.15;;;22.90;95.90;;;;;;5057732;28;21557;-62
2023/05/21 12:25:18;;;;;;;13.48;8.65;;;23.00;95.60;;;;;;5073923;28;20500;-62
2023/05/21 12:27:45;;;;;;;14.50;8.52;;;23.00;95.40;;;;;;5063489;28;20500;-65
2023/05/21 12:30:11;;;;;;;16.33;9.10;;;23.00;95.00;;;;;;5053780;28;20071;-65
2023/05/21 12:32:42;;;;;;;16.02;9.25;;;23.00;96.00;;;;;;5062392;28;20028;-62
2023/05/21 12:35:08;;;;;;;13.35;8.93;;;23.10;94.70;;;;;;5069857;28;20433;-62
2023/05/21 12:37:34;;;;;;;13.90;8.63;;;23.10;94.40;;;;;;5071761;28;20100;-65
2023/05/21 12:40:06;;;;;;;13.00;8.48;;;23.00;94.20;;;;;;5065652;28;20400;-62
2023/05/21 12:42:35;;;;;;;16.92;10.25;;;23.00;93.90;;;;;;5055453;28;20024;-62
2023/05/21 12:45:07;;;;;;;13.77;8.20;;;23.00;93.70;;;;;;5072391;28;20028;-63